Time;durP1;ratioP1;P1;durP2;ratioP2;P2;SDS_P1;SDS_P2;PMS_P1;PMS_P2;Temp;Humidity;BMP_temperature;BMP_pressure;BME280_temperature;BME280_humidity;BME280_pressure;Samples;Min_cycle;Max_cycle;Signal;HPM_P1;HPM_P2
2022/06/17 00:00:59;;;;;;;18.00;14.65;;;14.60;99.90;;;;;;5057324;28;20045;-64
2022/06/17 00:03:27;;;;;;;22.23;15.95;;;14.60;99.90;;;;;;5067927;28;20409;-64
2022/06/17 00:05:58;;;;;;;22.52;16.65;;;14.60;99.90;;;;;;5069016;28;20080;-64
2022/06/17 00:08:43;;;;;;;20.25;14.95;;;14.50;99.90;;;;;;5069649;28;20055;-64
2022/06/17 00:11:30;;;;;;;21.23;14.57;;;14.50;99.90;;;;;;5053928;28;20048;-64
2022/06/17 00:13:55;;;;;;;17.25;14.15;;;14.50;99.90;;;;;;5058801;28;20044;-64
2022/06/17 00:16:23;;;;;;;19.02;14.10;;;14.50;99.90;;;;;;5055722;28;20521;-64
2022/06/17 00:18:49;;;;;;;22.60;14.80;;;14.40;99.90;;;;;;5069695;28;20052;-64
2022/06/17 00:21:42;;;;;;;17.98;15.45;;;14.40;99.90;;;;;;5069754;28;20347;-64
2022/06/17 00:24:18;;;;;;;21.15;15.70;;;14.40;99.90;;;;;;5069986;28;20558;-64
2022/06/17 00:26:45;;;;;;;24.00;16.40;;;14.30;99.90;;;;;;5067734;28;20051;-64
2022/06/17 00:29:13;;;;;;;16.02;14.32;;;14.30;99.90;;;;;;5056021;28;20041;-64
2022/06/17 00:31:39;;;;;;;18.02;14.95;;;14.20;99.90;;;;;;5069392;28;20558;-64
2022/06/17 00:34:05;;;;;;;22.17;15.80;;;14.10;99.90;;;;;;5069901;28;20036;-64
2022/06/17 00:36:30;;;;;;;22.02;15.50;;;14.10;99.90;;;;;;5069651;28;20059;-64
2022/06/17 00:38:56;;;;;;;18.55;15.93;;;14.10;99.90;;;;;;5052987;28;20045;-64
2022/06/17 00:41:29;;;;;;;16.33;14.40;;;14.10;99.90;;;;;;5062555;28;20463;-64
2022/06/17 00:43:57;;;;;;;21.73;16.73;;;14.10;99.90;;;;;;5058735;28;20469;-64
2022/06/17 00:46:27;;;;;;;20.10;15.95;;;14.00;99.90;;;;;;5068730;28;20044;-64
2022/06/17 00:49:14;;;;;;;19.05;15.80;;;14.00;99.90;;;;;;5059475;28;20084;-64
2022/06/17 00:52:00;;;;;;;17.38;15.25;;;14.00;99.90;;;;;;5069340;28;20044;-64
2022/06/17 00:54:33;;;;;;;18.33;15.57;;;14.00;99.90;;;;;;5067971;28;20041;-64
2022/06/17 00:56:59;;;;;;;17.58;14.35;;;13.90;99.90;;;;;;5068320;28;20048;-64
2022/06/17 00:59:25;;;;;;;16.80;14.85;;;13.80;99.90;;;;;;5068565;28;20044;-64
2022/06/17 01:01:56;;;;;;;16.75;14.68;;;13.70;99.90;;;;;;5068635;28;20502;-64
2022/06/17 01:04:25;;;;;;;24.85;17.95;;;13.70;99.90;;;;;;5065163;28;20056;-64
2022/06/17 01:06:57;;;;;;;15.10;13.50;;;13.70;99.90;;;;;;5067703;28;20044;-64
2022/06/17 01:12:16;;;;;;;13.50;11.73;;;13.50;99.90;;;;;;5068456;28;20063;-64
2022/06/17 01:14:43;;;;;;;16.95;13.27;;;13.40;99.90;;;;;;5068954;28;20115;-64
2022/06/17 01:17:12;;;;;;;26.80;16.73;;;13.40;99.90;;;;;;5068949;28;20051;-64
2022/06/17 01:19:42;;;;;;;20.83;15.60;;;13.40;99.90;;;;;;5068655;28;20500;-64
2022/06/17 01:22:26;;;;;;;21.23;17.58;;;13.40;99.90;;;;;;5054828;28;20401;-64
2022/06/17 01:25:03;;;;;;;18.73;15.40;;;13.40;99.90;;;;;;5068762;28;20069;-64
2022/06/17 01:27:36;;;;;;;17.85;15.95;;;13.40;99.90;;;;;;5055467;28;20044;-64
2022/06/17 01:30:03;;;;;;;22.40;16.27;;;13.40;99.90;;;;;;5068309;28;20135;-64
2022/06/17 01:32:34;;;;;;;17.95;15.43;;;13.40;99.90;;;;;;5055006;28;20152;-64
2022/06/17 01:35:00;;;;;;;19.55;15.32;;;13.30;99.90;;;;;;5068515;28;20084;-64
2022/06/17 01:37:29;;;;;;;22.23;15.82;;;13.30;99.90;;;;;;5066066;28;20044;-64
2022/06/17 01:39:56;;;;;;;18.83;16.40;;;13.30;99.90;;;;;;5067234;28;20119;-64
2022/06/17 01:42:23;;;;;;;18.48;16.65;;;13.20;99.90;;;;;;5068441;28;20101;-64
2022/06/17 01:44:52;;;;;;;23.02;17.98;;;13.20;99.90;;;;;;5082360;28;20045;-64
2022/06/17 01:47:24;;;;;;;22.42;17.95;;;13.20;99.90;;;;;;5064344;28;20076;-64
2022/06/17 01:49:54;;;;;;;25.30;18.10;;;13.20;99.90;;;;;;5067823;28;20685;-65
2022/06/17 01:53:08;;;;;;;23.73;18.52;;;13.20;99.90;;;;;;5070302;28;20048;-64
2022/06/17 01:55:51;;;;;;;22.33;17.75;;;13.10;99.90;;;;;;5062802;28;20051;-65
2022/06/17 01:58:26;;;;;;;21.60;16.00;;;13.10;99.90;;;;;;5059828;28;20037;-64
2022/06/17 02:00:52;;;;;;;18.15;15.73;;;13.00;99.90;;;;;;5061512;28;20058;-64
2022/06/17 02:03:24;;;;;;;16.05;14.35;;;13.00;99.90;;;;;;5067614;28;20040;-64
2022/06/17 02:06:03;;;;;;;15.98;14.10;;;12.90;99.90;;;;;;5074098;28;20064;-64
2022/06/17 02:08:29;;;;;;;21.77;14.23;;;12.80;99.90;;;;;;5075347;28;20037;-64
2022/06/17 02:10:56;;;;;;;16.13;14.25;;;12.70;99.90;;;;;;5062802;28;20040;-64
2022/06/17 02:13:22;;;;;;;18.10;16.15;;;12.70;99.90;;;;;;5065496;28;20455;-64
2022/06/17 02:15:48;;;;;;;16.92;14.43;;;12.60;99.90;;;;;;5067926;28;20044;-64
2022/06/17 02:18:19;;;;;;;25.10;14.82;;;12.60;99.90;;;;;;5068171;28;20044;-64
2022/06/17 02:20:49;;;;;;;17.67;14.95;;;12.60;99.90;;;;;;5057137;28;20071;-64
2022/06/17 02:23:14;;;;;;;18.35;15.10;;;12.50;99.90;;;;;;5058028;28;20041;-64
2022/06/17 02:25:44;;;;;;;19.02;14.45;;;12.50;99.90;;;;;;5068360;28;20040;-64
2022/06/17 02:28:11;;;;;;;18.40;13.68;;;12.50;99.90;;;;;;5068670;28;20076;-64
2022/06/17 02:30:40;;;;;;;16.63;14.35;;;12.50;99.90;;;;;;5052386;28;20041;-64
2022/06/17 02:33:08;;;;;;;15.75;13.68;;;12.40;99.90;;;;;;5063683;28;20412;-65
2022/06/17 02:35:46;;;;;;;18.30;15.40;;;12.40;99.90;;;;;;5053145;28;20095;-65
2022/06/17 02:38:15;;;;;;;15.85;14.27;;;12.40;99.90;;;;;;5054252;28;20497;-64
2022/06/17 02:40:43;;;;;;;17.65;15.30;;;12.40;99.90;;;;;;5060416;28;20213;-65
2022/06/17 02:43:21;;;;;;;20.15;14.65;;;12.30;99.90;;;;;;5067146;28;20040;-64
2022/06/17 02:45:58;;;;;;;21.42;15.88;;;12.30;99.90;;;;;;5070584;28;20059;-64
2022/06/17 02:48:32;;;;;;;20.08;16.10;;;12.30;99.90;;;;;;5067239;28;20036;-64
2022/06/17 02:51:00;;;;;;;21.45;17.88;;;12.30;99.90;;;;;;5067094;28;20052;-64
2022/06/17 02:53:33;;;;;;;24.02;19.75;;;12.30;99.90;;;;;;5067136;28;20101;-64
2022/06/17 02:56:03;;;;;;;24.33;16.98;;;12.30;99.90;;;;;;5067746;28;20102;-65
2022/06/17 02:58:52;;;;;;;26.10;18.55;;;12.30;99.90;;;;;;5062721;28;20051;-64
2022/06/17 03:01:23;;;;;;;20.95;18.50;;;12.30;99.90;;;;;;5079294;28;20041;-64
2022/06/17 03:03:50;;;;;;;25.98;18.85;;;12.30;99.90;;;;;;5053644;28;20079;-65
2022/06/17 03:06:37;;;;;;;20.95;18.00;;;12.30;99.90;;;;;;5067273;28;20048;-64
2022/06/17 03:09:15;;;;;;;24.10;18.85;;;12.30;99.90;;;;;;5066378;28;20052;-64
2022/06/17 03:11:43;;;;;;;27.88;19.77;;;12.30;99.90;;;;;;5057102;28;20075;-65
2022/06/17 03:14:12;;;;;;;27.15;19.75;;;12.30;99.90;;;;;;5071393;28;20131;-65
2022/06/17 03:16:39;;;;;;;24.38;19.00;;;12.40;99.90;;;;;;5084607;28;20044;-65
2022/06/17 03:19:05;;;;;;;22.38;18.90;;;12.30;99.90;;;;;;5054990;28;20505;-65
2022/06/17 03:21:31;;;;;;;24.85;21.58;;;12.40;99.90;;;;;;5070856;28;20040;-65
2022/06/17 03:24:04;;;;;;;27.05;20.48;;;12.30;99.90;;;;;;5071116;28;20036;-64
2022/06/17 03:26:37;;;;;;;26.83;19.98;;;12.30;99.90;;;;;;5071093;28;20905;-64
2022/06/17 03:29:06;;;;;;;22.80;19.67;;;12.30;99.90;;;;;;5056255;28;20072;-64
2022/06/17 03:31:49;;;;;;;24.67;20.95;;;12.30;99.90;;;;;;5070583;28;20131;-64
2022/06/17 03:34:27;;;;;;;24.50;20.85;;;12.30;99.90;;;;;;5070171;28;20040;-64
2022/06/17 03:37:05;;;;;;;28.77;22.17;;;12.30;99.90;;;;;;5059667;28;20044;-64
2022/06/17 03:39:38;;;;;;;24.42;19.80;;;12.40;99.90;;;;;;5070642;28;20044;-65
2022/06/17 03:42:15;;;;;;;27.05;20.70;;;12.40;99.90;;;;;;5070981;28;20048;-65
2022/06/17 03:44:58;;;;;;;28.27;21.67;;;12.40;99.90;;;;;;5070629;28;20040;-65
2022/06/17 03:47:34;;;;;;;26.70;19.90;;;12.50;99.90;;;;;;5055830;28;20052;-65
2022/06/17 03:50:08;;;;;;;31.17;20.50;;;12.50;99.90;;;;;;5059085;28;20211;-65
2022/06/17 03:52:48;;;;;;;25.17;18.60;;;12.60;99.90;;;;;;5070250;28;20446;-65
2022/06/17 03:55:17;;;;;;;30.95;22.73;;;12.70;99.90;;;;;;5063576;28;20521;-65
2022/06/17 03:57:50;;;;;;;31.27;25.65;;;12.70;99.90;;;;;;5069023;28;20521;-65
2022/06/17 04:00:24;;;;;;;26.83;21.13;;;12.80;99.90;;;;;;5068823;28;20134;-65
2022/06/17 04:02:51;;;;;;;24.33;21.33;;;12.80;99.90;;;;;;5069998;28;20068;-65
2022/06/17 04:05:20;;;;;;;30.77;23.83;;;12.80;99.90;;;;;;5069339;28;20555;-65
2022/06/17 04:07:47;;;;;;;33.53;25.00;;;12.90;99.90;;;;;;5070536;28;20075;-65
2022/06/17 04:10:21;;;;;;;38.55;28.08;;;12.90;99.90;;;;;;5069692;28;20044;-65
2022/06/17 04:12:49;;;;;;;35.50;29.65;;;12.90;99.90;;;;;;5067925;28;20041;-66
2022/06/17 04:15:20;;;;;;;37.65;27.90;;;13.00;99.90;;;;;;5057132;28;20559;-66
2022/06/17 04:17:48;;;;;;;35.00;28.25;;;13.00;99.90;;;;;;5069902;28;20490;-65
2022/06/17 04:20:28;;;;;;;29.40;25.27;;;13.10;99.90;;;;;;5068725;28;20120;-65
2022/06/17 04:23:06;;;;;;;26.75;22.77;;;13.20;99.90;;;;;;5066219;28;20303;-65
2022/06/17 04:25:41;;;;;;;27.88;23.98;;;13.30;99.90;;;;;;5063816;28;20048;-65
2022/06/17 04:28:12;;;;;;;32.03;23.02;;;13.30;99.90;;;;;;5066437;28;20052;-65
2022/06/17 04:30:45;;;;;;;28.08;24.35;;;13.40;99.90;;;;;;5062902;28;20041;-65
2022/06/17 04:33:30;;;;;;;40.53;24.70;;;13.50;99.90;;;;;;5062177;28;20071;-65
2022/06/17 04:36:01;;;;;;;27.88;23.10;;;13.60;99.90;;;;;;5065665;28;20048;-65
2022/06/17 04:38:32;;;;;;;40.08;23.13;;;13.70;99.90;;;;;;5069009;28;20044;-65
2022/06/17 04:41:01;;;;;;;28.40;22.80;;;13.70;99.90;;;;;;5072672;28;20452;-65
2022/06/17 04:43:40;;;;;;;34.42;20.77;;;13.80;99.90;;;;;;5074364;28;20619;-65
2022/06/17 04:46:05;;;;;;;;;;;13.90;99.90;;;;;;5068698;28;20037;-65
2022/06/17 04:48:31;;;;;;;28.35;22.55;;;13.90;99.90;;;;;;5065739;28;19924;-65
2022/06/17 04:50:57;;;;;;;35.50;23.20;;;14.00;99.90;;;;;;5069415;28;20054;-65
2022/06/17 04:53:23;;;;;;;37.97;31.25;;;14.10;99.90;;;;;;5068759;28;20098;-65
2022/06/17 04:55:50;;;;;;;41.33;30.67;;;14.10;99.90;;;;;;5066604;28;20116;-65
2022/06/17 04:58:21;;;;;;;37.13;30.40;;;14.20;99.90;;;;;;5065468;28;20044;-65
2022/06/17 05:00:54;;;;;;;34.78;25.20;;;14.30;99.90;;;;;;5069070;28;20160;-65
2022/06/17 05:03:26;;;;;;;26.45;22.67;;;14.30;99.90;;;;;;5068191;28;20049;-65
2022/06/17 05:05:51;;;;;;;26.02;21.48;;;14.40;99.90;;;;;;5060331;28;20071;-65
2022/06/17 05:08:32;;;;;;;22.73;19.20;;;14.50;99.90;;;;;;5064052;28;20045;-65
2022/06/17 05:11:07;;;;;;;25.55;19.35;;;14.50;99.90;;;;;;5058221;28;20136;-65
2022/06/17 05:13:39;;;;;;;29.75;23.40;;;14.60;99.90;;;;;;5068301;28;20532;-65
2022/06/17 05:16:06;;;;;;;30.38;25.83;;;14.60;99.90;;;;;;5048838;28;20045;-65
2022/06/17 05:18:31;;;;;;;44.63;32.38;;;14.60;99.90;;;;;;5065736;28;20088;-65
2022/06/17 05:20:57;;;;;;;46.20;33.17;;;14.70;99.90;;;;;;5062137;28;20086;-65
2022/06/17 05:23:22;;;;;;;50.40;36.33;;;14.80;99.90;;;;;;5066913;28;20119;-65
2022/06/17 05:25:49;;;;;;;45.67;34.92;;;14.80;99.90;;;;;;5063663;28;20032;-65
2022/06/17 05:28:20;;;;;;;43.80;35.83;;;14.80;99.90;;;;;;5061723;28;20052;-65
2022/06/17 05:30:51;;;;;;;41.58;34.13;;;14.80;99.90;;;;;;5063571;28;20039;-65
2022/06/17 05:33:17;;;;;;;46.70;34.17;;;14.90;99.90;;;;;;5062030;28;20048;-65
2022/06/17 05:35:43;;;;;;;38.00;32.40;;;15.00;99.90;;;;;;5059437;28;20033;-66
2022/06/17 05:38:10;;;;;;;38.70;31.77;;;15.00;99.90;;;;;;5067337;28;20050;-65
2022/06/17 05:40:38;;;;;;;34.65;30.63;;;15.10;99.90;;;;;;5065117;28;20143;-65
2022/06/17 05:43:04;;;;;;;39.08;30.65;;;15.20;99.90;;;;;;5065871;28;20128;-66
2022/06/17 05:45:31;;;;;;;37.75;31.63;;;15.20;99.90;;;;;;5066422;28;20041;-66
2022/06/17 05:47:56;;;;;;;43.28;30.85;;;15.30;99.90;;;;;;5064445;28;20085;-65
2022/06/17 05:50:25;;;;;;;36.45;31.65;;;15.40;99.90;;;;;;5057737;28;20044;-64
2022/06/17 05:52:57;;;;;;;32.65;27.10;;;15.40;99.90;;;;;;5058123;28;20215;-64
2022/06/17 05:55:24;;;;;;;35.70;23.83;;;15.50;99.90;;;;;;5064373;28;20090;-64
2022/06/17 05:57:50;;;;;;;30.47;25.87;;;15.50;99.90;;;;;;5066984;28;20448;-64
2022/06/17 06:00:17;;;;;;;25.73;22.05;;;15.60;99.90;;;;;;5059996;28;20036;-64
2022/06/17 06:02:42;;;;;;;30.80;22.88;;;15.70;99.90;;;;;;5064917;28;20037;-64
2022/06/17 06:05:13;;;;;;;24.52;21.58;;;15.70;99.90;;;;;;5061655;28;20459;-64
2022/06/17 06:07:39;;;;;;;37.85;21.98;;;15.80;99.90;;;;;;5083547;28;20455;-64
2022/06/17 06:10:07;;;;;;;39.28;21.65;;;15.80;99.90;;;;;;5064135;28;20102;-64
2022/06/17 06:15:18;;;;;;;28.92;19.38;;;16.00;99.90;;;;;;5062807;28;20067;-69
2022/06/17 06:17:45;;;;;;;24.63;21.27;;;16.10;99.90;;;;;;5071676;28;20501;-72
2022/06/17 06:20:11;;;;;;;26.25;19.45;;;16.20;99.90;;;;;;5062538;28;20051;-68
2022/06/17 06:22:37;;;;;;;31.63;19.42;;;16.40;99.90;;;;;;5070303;28;20040;-71
2022/06/17 06:25:03;;;;;;;30.67;17.92;;;16.40;99.90;;;;;;5067051;28;20036;-67
2022/06/17 06:27:29;;;;;;;24.23;18.63;;;16.50;99.90;;;;;;5064125;28;20524;-68
2022/06/17 06:29:54;;;;;;;26.70;20.33;;;16.60;99.90;;;;;;5073645;28;20032;-69
2022/06/17 06:32:20;;;;;;;25.48;19.73;;;16.60;99.90;;;;;;5063039;28;21103;-68
2022/06/17 06:34:46;;;;;;;21.30;19.05;;;16.60;99.90;;;;;;5068253;28;20052;-68
2022/06/17 06:37:13;;;;;;;30.40;20.02;;;16.70;99.90;;;;;;5054640;28;20076;-68
2022/06/17 06:39:38;;;;;;;28.55;20.77;;;16.70;99.90;;;;;;5071960;28;20067;-69
2022/06/17 06:42:05;;;;;;;22.40;18.45;;;16.80;99.90;;;;;;5057285;28;20126;-69
2022/06/17 06:44:30;;;;;;;24.50;19.27;;;16.80;99.90;;;;;;5065739;28;21703;-69
2022/06/17 06:46:56;;;;;;;23.60;18.70;;;16.80;99.90;;;;;;5064344;28;20135;-70
2022/06/17 06:49:22;;;;;;;24.90;19.65;;;16.90;99.90;;;;;;5064785;28;20045;-70
2022/06/17 06:51:47;;;;;;;31.00;20.33;;;17.00;99.90;;;;;;5064656;28;20389;-70
2022/06/17 06:54:13;;;;;;;51.00;19.73;;;17.00;99.90;;;;;;5067033;28;20048;-70
2022/06/17 06:56:38;;;;;;;28.73;19.33;;;17.10;99.90;;;;;;5048941;28;20047;-70
2022/06/17 06:59:04;;;;;;;29.80;19.70;;;17.10;99.90;;;;;;5065152;28;20037;-70
2022/06/17 07:01:30;;;;;;;30.95;20.50;;;17.20;99.90;;;;;;5067179;28;20037;-71
2022/06/17 07:03:55;;;;;;;28.55;20.40;;;17.30;99.90;;;;;;5067186;28;20048;-71
2022/06/17 07:06:21;;;;;;;22.88;19.60;;;17.40;99.90;;;;;;5067164;28;20059;-70
2022/06/17 07:08:47;;;;;;;26.10;18.85;;;17.50;99.90;;;;;;5059662;28;20056;-70
2022/06/17 07:11:16;;;;;;;30.50;22.42;;;17.60;99.90;;;;;;5061260;28;20405;-70
2022/06/17 07:13:43;;;;;;;30.77;20.85;;;17.70;99.90;;;;;;5063825;28;20075;-71
2022/06/17 07:16:10;;;;;;;27.48;21.23;;;17.80;99.90;;;;;;5065043;28;20501;-70
2022/06/17 07:18:37;;;;;;;42.00;22.55;;;17.90;99.90;;;;;;5065355;28;20394;-71
2022/06/17 07:21:06;;;;;;;31.10;19.88;;;18.00;99.90;;;;;;5051339;28;20452;-71
2022/06/17 07:23:34;;;;;;;27.98;20.30;;;18.10;99.90;;;;;;5066722;28;20045;-71
2022/06/17 07:26:13;;;;;;;34.00;19.92;;;18.20;99.90;;;;;;5066578;28;20041;-70
2022/06/17 07:28:39;;;;;;;26.85;19.70;;;18.40;99.90;;;;;;5054304;28;20494;-70
2022/06/17 07:31:05;;;;;;;23.13;20.40;;;18.60;99.90;;;;;;5065061;28;20102;-71
2022/06/17 07:33:32;;;;;;;28.65;18.90;;;18.70;99.90;;;;;;5046201;28;20743;-71
2022/06/17 07:36:01;;;;;;;36.33;19.45;;;18.80;99.90;;;;;;5067190;28;20059;-70
2022/06/17 07:41:17;;;;;;;24.27;18.08;;;19.30;99.90;;;;;;5055731;28;20064;-70
2022/06/17 07:43:42;;;;;;;19.55;17.35;;;19.40;99.90;;;;;;5055088;28;20037;-70
2022/06/17 07:46:10;;;;;;;19.58;15.93;;;19.60;99.90;;;;;;5063951;28;20098;-69
2022/06/17 07:48:38;;;;;;;21.75;15.35;;;19.70;99.90;;;;;;5061559;28;20084;-69
2022/06/17 07:51:05;;;;;;;19.55;15.73;;;19.80;99.90;;;;;;5061284;28;20409;-69
2022/06/17 07:53:32;;;;;;;27.75;16.27;;;19.90;99.90;;;;;;5055367;28;20508;-69
2022/06/17 07:55:59;;;;;;;23.63;14.13;;;20.10;99.90;;;;;;5068400;28;20041;-69
2022/06/17 07:58:25;;;;;;;18.77;14.37;;;20.30;99.90;;;;;;5068057;28;20522;-69
2022/06/17 08:00:52;;;;;;;18.27;14.35;;;20.50;99.90;;;;;;5069820;28;20453;-69
2022/06/17 08:03:18;;;;;;;22.92;14.75;;;20.70;99.90;;;;;;5069583;28;20444;-68
2022/06/17 08:05:48;;;;;;;20.80;15.52;;;21.10;99.90;;;;;;5078820;28;20106;-68
2022/06/17 08:08:21;;;;;;;17.75;15.93;;;21.30;99.90;;;;;;5061444;28;20076;-68
2022/06/17 08:10:59;;;;;;;19.13;14.07;;;21.50;99.90;;;;;;5063201;28;20114;-68
2022/06/17 08:13:25;;;;;;;20.65;15.25;;;21.70;99.90;;;;;;5068900;28;20083;-69
2022/06/17 08:15:53;;;;;;;21.73;16.42;;;21.90;99.90;;;;;;5059375;28;20048;-68
2022/06/17 08:18:19;;;;;;;23.73;15.50;;;21.90;99.90;;;;;;5061329;28;20048;-68
2022/06/17 08:20:45;;;;;;;16.38;12.43;;;21.90;99.90;;;;;;5074958;28;20163;-68
2022/06/17 08:23:10;;;;;;;27.63;14.52;;;22.00;99.90;;;;;;5064805;28;20827;-68
2022/06/17 08:25:37;;;;;;;18.08;15.23;;;21.90;99.90;;;;;;5064497;28;20043;-68
2022/06/17 08:28:06;;;;;;;24.52;14.48;;;22.00;99.90;;;;;;5078294;28;20048;-68
2022/06/17 08:30:37;;;;;;;21.52;12.65;;;22.00;99.90;;;;;;5067655;28;20044;-68
2022/06/17 08:33:03;;;;;;;19.45;13.02;;;22.00;99.90;;;;;;5066675;28;20079;-68
2022/06/17 08:35:33;;;;;;;20.65;14.65;;;22.10;99.90;;;;;;5065613;28;20125;-68
2022/06/17 08:38:04;;;;;;;14.38;12.20;;;22.30;99.90;;;;;;5066622;28;20497;-68
2022/06/17 08:40:41;;;;;;;17.30;12.68;;;22.40;99.90;;;;;;5069445;28;20370;-68
2022/06/17 08:43:45;;;;;;;23.38;12.95;;;22.60;99.90;;;;;;5068537;28;20059;-68
2022/06/17 08:46:36;;;;;;;21.10;12.68;;;22.80;99.90;;;;;;5055302;28;20143;-68
2022/06/17 08:49:41;;;;;;;12.23;11.00;;;23.10;96.90;;;;;;5065298;28;20076;-69
2022/06/17 08:52:16;;;;;;;13.27;11.45;;;23.30;97.70;;;;;;5058868;28;20071;-68
2022/06/17 08:55:03;;;;;;;15.10;11.55;;;23.50;99.20;;;;;;5065513;28;20044;-69
2022/06/17 08:57:53;;;;;;;15.73;12.30;;;23.60;85.00;;;;;;5061202;28;20189;-68
2022/06/17 09:00:25;;;;;;;15.05;11.02;;;23.50;81.10;;;;;;5055138;28;20448;-69
2022/06/17 09:03:02;;;;;;;13.77;11.55;;;23.50;94.60;;;;;;5068205;28;20049;-68
2022/06/17 09:05:28;;;;;;;;;;;23.50;91.00;;;;;;5065448;28;20076;-68
2022/06/17 09:08:03;;;;;;;14.02;12.60;;;23.50;87.40;;;;;;5068575;28;19956;-68
2022/06/17 09:11:08;;;;;;;12.43;11.27;;;23.30;90.00;;;;;;5055501;28;20048;-68
2022/06/17 09:13:48;;;;;;;14.60;11.35;;;23.30;90.20;;;;;;5073042;28;20115;-68
2022/06/17 09:16:31;;;;;;;14.43;12.05;;;23.20;88.60;;;;;;5062339;28;20057;-68
2022/06/17 09:19:02;;;;;;;12.82;11.50;;;23.20;82.40;;;;;;5068460;28;20123;-69
2022/06/17 09:21:34;;;;;;;14.15;10.15;;;23.10;88.80;;;;;;5067295;28;20040;-68
2022/06/17 09:24:06;;;;;;;21.05;12.52;;;23.20;88.60;;;;;;5068570;28;20089;-68
2022/06/17 09:26:56;;;;;;;17.85;12.82;;;23.20;88.80;;;;;;5068058;28;20114;-68
2022/06/17 09:30:00;;;;;;;23.90;13.25;;;23.20;85.60;;;;;;5056300;28;20055;-68
2022/06/17 09:32:56;;;;;;;15.07;12.93;;;23.30;90.90;;;;;;5053378;28;20048;-68
2022/06/17 09:35:22;;;;;;;14.73;12.00;;;23.30;88.00;;;;;;5068913;28;20051;-68
2022/06/17 09:38:18;;;;;;;19.73;14.85;;;23.40;91.90;;;;;;5070972;28;20044;-68
2022/06/17 09:40:51;;;;;;;20.33;13.55;;;23.30;87.50;;;;;;5070413;28;20064;-68
2022/06/17 09:43:35;;;;;;;14.48;12.93;;;23.30;90.90;;;;;;5068250;28;20040;-68
2022/06/17 09:46:30;;;;;;;21.58;15.02;;;23.40;90.20;;;;;;5062203;28;20036;-68
2022/06/17 09:49:10;;;;;;;22.05;14.15;;;23.30;85.00;;;;;;5064120;28;20056;-68
2022/06/17 09:51:40;;;;;;;17.10;12.77;;;23.40;88.70;;;;;;5072131;28;20045;-68
2022/06/17 09:54:30;;;;;;;19.55;14.23;;;23.50;85.10;;;;;;5049537;28;20393;-68
2022/06/17 09:57:02;;;;;;;16.75;13.43;;;23.50;89.90;;;;;;5067874;28;20055;-67
2022/06/17 09:59:38;;;;;;;18.80;13.30;;;23.60;89.00;;;;;;5073735;28;20044;-68
2022/06/17 10:02:20;;;;;;;19.70;13.68;;;23.70;88.30;;;;;;5060200;28;20445;-68
2022/06/17 10:04:45;;;;;;;14.80;10.70;;;23.80;78.60;;;;;;5055988;28;20163;-67
2022/06/17 10:07:31;;;;;;;14.18;11.40;;;23.90;84.20;;;;;;5073775;28;20171;-68
2022/06/17 10:10:20;;;;;;;11.10;10.07;;;23.90;73.10;;;;;;5038935;28;20510;-68
2022/06/17 10:13:04;;;;;;;17.38;10.65;;;23.90;76.90;;;;;;5066108;28;20414;-68
2022/06/17 10:15:39;;;;;;;11.85;9.77;;;23.90;77.90;;;;;;5065938;28;20036;-68
2022/06/17 10:18:34;;;;;;;15.57;10.90;;;23.90;77.50;;;;;;5061881;28;20472;-68
2022/06/17 10:21:22;;;;;;;14.65;10.73;;;23.90;78.20;;;;;;5063790;28;20095;-68
2022/06/17 10:23:54;;;;;;;;;;;23.90;77.40;;;;;;5063209;28;20845;-68
2022/06/17 10:26:30;;;;;;;14.15;10.30;;;23.90;78.20;;;;;;5072016;28;20007;-69
2022/06/17 10:29:35;;;;;;;12.85;9.98;;;23.80;77.30;;;;;;5064691;28;20043;-68
2022/06/17 10:32:03;;;;;;;15.40;9.63;;;23.90;73.30;;;;;;5042886;28;20049;-68
2022/06/17 10:34:46;;;;;;;13.07;10.93;;;23.80;77.40;;;;;;5066269;28;20036;-68
2022/06/17 10:37:13;;;;;;;17.35;10.93;;;23.90;77.50;;;;;;5066576;28;20056;-68
2022/06/17 10:39:39;;;;;;;13.00;10.65;;;23.80;77.00;;;;;;5071912;28;20036;-68
2022/06/17 10:42:14;;;;;;;17.45;10.95;;;23.90;76.20;;;;;;5067675;28;20075;-68
2022/06/17 10:44:43;;;;;;;15.93;12.05;;;23.90;73.90;;;;;;5066177;28;20044;-67
2022/06/17 10:47:21;;;;;;;16.95;12.95;;;23.80;74.20;;;;;;5066000;28;20083;-68
2022/06/17 10:49:53;;;;;;;27.33;13.57;;;23.90;71.80;;;;;;5071600;28;20078;-68
2022/06/17 10:52:27;;;;;;;16.13;12.88;;;23.80;73.50;;;;;;5073398;28;20053;-68
2022/06/17 10:54:54;;;;;;;19.77;12.80;;;23.80;72.80;;;;;;5065358;28;20052;-68
2022/06/17 10:57:37;;;;;;;17.45;11.45;;;23.80;74.30;;;;;;5066901;28;20517;-68
2022/06/17 11:00:24;;;;;;;17.25;11.90;;;23.90;76.30;;;;;;5079725;28;20037;-68
2022/06/17 11:02:50;;;;;;;22.50;13.82;;;23.90;75.10;;;;;;5066554;28;20033;-68
2022/06/17 11:05:31;;;;;;;13.27;11.75;;;23.90;75.90;;;;;;5066552;28;20056;-69
2022/06/17 11:07:57;;;;;;;17.35;13.35;;;24.00;73.90;;;;;;5066190;28;20044;-69
2022/06/17 11:10:30;;;;;;;16.00;13.15;;;24.00;75.80;;;;;;5061524;28;20043;-68
2022/06/17 11:12:58;;;;;;;25.75;13.30;;;24.10;73.20;;;;;;5076279;28;20048;-69
2022/06/17 11:15:39;;;;;;;25.00;15.32;;;24.20;74.60;;;;;;5066601;28;20039;-69
2022/06/17 11:18:28;;;;;;;14.18;12.30;;;24.30;73.70;;;;;;5058366;28;20102;-69
2022/06/17 11:20:58;;;;;;;15.32;12.05;;;24.40;72.90;;;;;;5052924;28;20045;-69
2022/06/17 11:23:51;;;;;;;15.60;12.40;;;24.50;74.10;;;;;;5059766;28;20724;-69
2022/06/17 11:26:25;;;;;;;15.90;11.73;;;24.70;75.10;;;;;;5065436;28;20045;-69
2022/06/17 11:28:56;;;;;;;14.95;12.77;;;24.80;73.80;;;;;;5066649;28;20068;-69
2022/06/17 11:31:21;;;;;;;22.13;14.10;;;24.80;73.40;;;;;;5068395;28;20119;-68
2022/06/17 11:33:53;;;;;;;17.45;11.98;;;24.90;71.50;;;;;;5060630;28;20148;-69
2022/06/17 11:36:51;;;;;;;21.73;11.93;;;25.00;71.90;;;;;;5057242;28;20046;-68
2022/06/17 11:39:34;;;;;;;20.77;12.50;;;24.90;67.60;;;;;;5065577;28;20171;-70
2022/06/17 11:42:04;;;;;;;33.97;12.27;;;24.90;67.60;;;;;;5066479;28;20033;-68
2022/06/17 11:44:30;;;;;;;13.68;12.15;;;24.90;69.90;;;;;;5070209;28;20047;-69
2022/06/17 11:47:00;;;;;;;13.23;10.43;;;24.90;69.90;;;;;;5079614;28;20077;-69
2022/06/17 11:49:26;;;;;;;12.30;10.43;;;24.90;68.50;;;;;;5066906;28;20045;-69
2022/06/17 11:52:04;;;;;;;17.90;11.50;;;24.90;68.00;;;;;;5070309;28;20163;-69
2022/06/17 11:54:35;;;;;;;15.15;11.95;;;25.00;69.00;;;;;;5065378;28;20390;-69
2022/06/17 11:57:39;;;;;;;16.13;11.88;;;25.00;67.20;;;;;;5054910;28;20129;-68
2022/06/17 12:00:25;;;;;;;14.52;12.07;;;25.10;65.30;;;;;;5050257;28;20056;-68
2022/06/17 12:03:02;;;;;;;11.70;10.50;;;25.30;66.30;;;;;;5067876;28;20131;-68
2022/06/17 12:05:31;;;;;;;31.58;13.00;;;25.60;64.00;;;;;;5074799;28;20736;-68
2022/06/17 12:08:02;;;;;;;12.70;10.60;;;25.80;64.70;;;;;;5070187;28;20155;-69
2022/06/17 12:10:51;;;;;;;15.77;11.82;;;25.90;63.20;;;;;;5063114;28;20957;-69
2022/06/17 12:13:26;;;;;;;25.77;10.88;;;25.90;61.40;;;;;;5069490;28;20086;-69
2022/06/17 12:16:01;;;;;;;19.50;10.35;;;25.90;61.20;;;;;;5072616;28;20415;-69
2022/06/17 12:18:34;;;;;;;22.67;11.00;;;26.00;61.80;;;;;;5069531;28;20049;-68
2022/06/17 12:21:22;;;;;;;18.55;12.05;;;26.10;61.30;;;;;;5067930;28;20126;-68
2022/06/17 12:24:23;;;;;;;12.40;11.05;;;26.20;59.00;;;;;;5062686;28;20107;-69
2022/06/17 12:27:10;;;;;;;17.23;13.50;;;26.20;58.80;;;;;;5066475;28;20041;-69
2022/06/17 12:29:45;;;;;;;11.10;9.93;;;26.30;59.30;;;;;;5069159;28;20047;-69
2022/06/17 12:32:24;;;;;;;13.95;10.13;;;26.40;59.20;;;;;;5074878;28;20052;-67
2022/06/17 12:35:05;;;;;;;11.77;10.57;;;26.50;61.20;;;;;;5065833;28;20517;-65
2022/06/17 12:37:49;;;;;;;17.58;10.88;;;26.60;59.30;;;;;;5061979;28;20402;-66
2022/06/17 12:40:44;;;;;;;16.08;11.20;;;26.70;57.10;;;;;;5070925;28;20040;-64
2022/06/17 12:43:15;;;;;;;11.30;10.27;;;26.60;55.50;;;;;;5060598;28;20549;-65
2022/06/17 12:45:59;;;;;;;14.30;11.15;;;26.80;56.80;;;;;;5063310;28;20059;-65
2022/06/17 12:48:42;;;;;;;15.65;11.07;;;26.90;56.90;;;;;;5068844;28;20482;-65
2022/06/17 12:54:52;;;;;;;11.75;9.90;;;27.10;56.30;;;;;;5063987;28;20045;-65
2022/06/17 12:57:52;;;;;;;16.17;10.20;;;27.20;56.40;;;;;;5061573;28;20043;-65
2022/06/17 13:00:38;;;;;;;13.27;11.38;;;27.30;55.40;;;;;;5056290;28;20037;-65
2022/06/17 13:03:17;;;;;;;14.98;10.88;;;27.40;55.50;;;;;;5062565;28;20052;-65
2022/06/17 13:05:45;;;;;;;15.20;10.85;;;27.40;54.70;;;;;;5071929;28;20121;-65
2022/06/17 13:08:42;;;;;;;16.77;10.52;;;27.50;54.80;;;;;;5068547;28;20057;-65
2022/06/17 13:11:28;;;;;;;10.70;9.25;;;27.50;54.40;;;;;;5061419;28;20407;-65